Time;durP1;ratioP1;P1;durP2;ratioP2;P2;SDS_P1;SDS_P2;PMS_P1;PMS_P2;Temp;Humidity;BMP_temperature;BMP_pressure;BME280_temperature;BME280_humidity;BME280_pressure;Samples;Min_cycle;Max_cycle;Signal;HPM_P1;HPM_P2
2023/01/23 00:00:40;;;;;;;90.28;43.63;;;;;;;;;;5057927;28;20501;-60
2023/01/23 00:03:06;;;;;;;98.15;45.22;;;;;;;;;;5067787;28;20032;-60
2023/01/23 00:05:32;;;;;;;87.13;43.55;;;;;;;;;;5057790;28;20025;-60
2023/01/23 00:07:58;;;;;;;86.53;41.42;;;;;;;;;;5067855;28;20079;-60
2023/01/23 00:10:24;;;;;;;90.30;45.47;;;;;;;;;;5063273;28;20039;-60
2023/01/23 00:12:52;;;;;;;80.38;41.20;;;;;;;;;;5068321;28;20024;-60
2023/01/23 00:15:18;;;;;;;93.57;43.63;;;;;;;;;;5085111;28;20042;-60
2023/01/23 00:17:44;;;;;;;82.05;43.42;;;;;;;;;;5066066;28;20020;-60
2023/01/23 00:20:11;;;;;;;86.72;44.72;;;;;;;;;;5074187;28;20111;-60
2023/01/23 00:22:38;;;;;;;100.50;44.65;;;;;;;;;;5058319;28;20089;-60
2023/01/23 00:25:04;;;;;;;94.03;43.22;;;;;;;;;;5068172;28;20027;-60
2023/01/23 00:27:30;;;;;;;92.00;43.28;;;;;;;;;;5081094;28;20032;-60
2023/01/23 00:29:57;;;;;;;85.60;42.40;;;;;;;;;;5063876;28;20482;-60
2023/01/23 00:32:23;;;;;;;90.65;44.50;;;;;;;;;;5066443;28;20024;-60
2023/01/23 00:34:49;;;;;;;94.80;43.38;;;;;;;;;;5056979;28;20036;-60
2023/01/23 00:37:16;;;;;;;90.22;42.85;;;;;;;;;;5081626;28;20047;-60
2023/01/23 00:39:44;;;;;;;84.28;41.13;;;;;;;;;;5066402;28;20528;-60
2023/01/23 00:42:10;;;;;;;90.57;40.13;;;;;;;;;;5092905;28;20510;-60
2023/01/23 00:44:36;;;;;;;90.63;42.20;;;;;;;;;;5057252;28;20395;-60
2023/01/23 00:47:02;;;;;;;87.65;40.65;;;;;;;;;;5066550;28;20097;-60
2023/01/23 00:49:29;;;;;;;86.65;41.20;;;;;;;;;;5054816;28;20455;-60
2023/01/23 00:51:55;;;;;;;85.53;42.28;;;;;;;;;;5064554;28;20120;-60
2023/01/23 00:54:23;;;;;;;78.18;37.35;;;;;;;;;;5062017;28;20381;-60
2023/01/23 00:56:49;;;;;;;83.10;38.67;;;;;;;;;;5057197;28;20057;-60
2023/01/23 00:59:15;;;;;;;81.50;39.92;;;;;;;;;;5067230;28;20052;-60
2023/01/23 01:01:42;;;;;;;73.18;37.53;;;;;;;;;;5065340;28;20483;-60
2023/01/23 01:04:08;;;;;;;76.72;36.33;;;;;;;;;;5058705;28;20077;-60
2023/01/23 01:06:35;;;;;;;75.18;36.55;;;;;;;;;;5058161;28;20075;-60
2023/01/23 01:09:02;;;;;;;76.63;35.47;;;;;;;;;;5065915;28;20024;-60
2023/01/23 01:11:28;;;;;;;80.40;36.55;;;;;;;;;;5054215;28;20071;-60
2023/01/23 01:13:57;;;;;;;79.03;37.72;;;;;;;;;;5064262;28;20017;-60
2023/01/23 01:16:24;;;;;;;74.57;35.92;;;;;;;;;;5063551;28;20386;-60
2023/01/23 01:18:50;;;;;;;75.25;37.97;;;;;;;;;;5059704;28;20098;-60
2023/01/23 01:21:17;;;;;;;72.15;36.15;;;;;;;;;;5071264;28;20032;-60
2023/01/23 01:23:44;;;;;;;72.32;34.78;;;;;;;;;;5059968;28;20021;-60
2023/01/23 01:26:10;;;;;;;64.82;33.92;;;;;;;;;;5065144;28;20025;-60
2023/01/23 01:28:41;;;;;;;66.60;32.38;;;;;;;;;;5066878;28;20033;-60
2023/01/23 01:31:11;;;;;;;65.72;34.30;;;;;;;;;;5063526;28;20028;-60
2023/01/23 01:33:38;;;;;;;64.22;34.17;;;;;;;;;;5055286;28;20017;-60
2023/01/23 01:36:11;;;;;;;68.22;33.53;;;;;;;;;;5062421;28;20186;-60
2023/01/23 01:38:37;;;;;;;;;;;;;;;;;;5061911;28;20112;-60
2023/01/23 01:41:05;;;;;;;72.13;32.97;;;;;;;;;;5070630;28;19909;-60
2023/01/23 01:43:32;;;;;;;73.20;34.03;;;;;;;;;;5057535;28;20533;-60
2023/01/23 01:46:08;;;;;;;70.18;33.88;;;;;;;;;;5066944;28;20025;-60
2023/01/23 01:48:53;;;;;;;67.25;31.05;;;;;;;;;;5066032;28;20162;-60
2023/01/23 01:51:21;;;;;;;67.05;32.67;;;;;;;;;;5057667;28;20546;-60
2023/01/23 01:53:50;;;;;;;75.60;33.85;;;;;;;;;;5069861;28;20017;-60
2023/01/23 01:56:17;;;;;;;67.50;32.78;;;;;;;;;;5095363;28;20031;-60
2023/01/23 01:58:45;;;;;;;71.40;32.95;;;;;;;;;;5060382;28;20032;-60
2023/01/23 02:01:11;;;;;;;66.85;32.75;;;;;;;;;;5070586;28;20157;-60
2023/01/23 02:03:38;;;;;;;64.22;31.67;;;;;;;;;;5056186;28;20074;-60
2023/01/23 02:06:04;;;;;;;61.65;31.35;;;;;;;;;;5067516;28;20487;-60
2023/01/23 02:08:36;;;;;;;70.13;33.38;;;;;;;;;;5064394;28;20031;-60
2023/01/23 02:11:04;;;;;;;61.33;30.35;;;;;;;;;;5057657;28;20033;-60
2023/01/23 02:13:35;;;;;;;75.75;32.35;;;;;;;;;;5070391;28;20031;-60
2023/01/23 02:16:07;;;;;;;71.50;33.35;;;;;;;;;;5060347;28;20478;-60
2023/01/23 02:18:35;;;;;;;64.80;32.50;;;;;;;;;;5061860;28;20083;-60
2023/01/23 02:21:05;;;;;;;63.78;30.70;;;;;;;;;;5068559;28;20028;-60
2023/01/23 02:23:38;;;;;;;61.45;29.80;;;;;;;;;;5089390;28;20083;-60
2023/01/23 02:26:06;;;;;;;60.33;30.70;;;;;;;;;;5099112;28;20379;-60
2023/01/23 02:28:37;;;;;;;61.75;29.45;;;;;;;;;;5062582;28;20067;-60
2023/01/23 02:31:04;;;;;;;54.78;29.00;;;;;;;;;;5095759;28;20032;-60
2023/01/23 02:33:31;;;;;;;59.55;28.25;;;;;;;;;;5078702;28;20482;-60
2023/01/23 02:35:59;;;;;;;53.20;25.30;;;;;;;;;;5066683;28;20049;-60
2023/01/23 02:38:36;;;;;;;55.90;28.30;;;;;;;;;;5061416;28;20024;-60
2023/01/23 02:41:05;;;;;;;57.50;27.92;;;;;;;;;;5063377;28;20504;-60
2023/01/23 02:43:37;;;;;;;60.78;29.77;;;;;;;;;;5055300;28;20052;-60
2023/01/23 02:46:07;;;;;;;60.90;29.70;;;;;;;;;;5065784;28;20071;-60
2023/01/23 02:48:33;;;;;;;68.40;30.73;;;;;;;;;;5062053;28;20036;-60
2023/01/23 02:51:01;;;;;;;67.03;29.20;;;;;;;;;;5058106;28;20513;-60
2023/01/23 02:53:29;;;;;;;57.10;28.13;;;;;;;;;;5068166;28;20489;-60
2023/01/23 02:55:57;;;;;;;59.97;28.60;;;;;;;;;;5039908;28;20065;-60
2023/01/23 03:01:09;;;;;;;59.58;29.13;;;;;;;;;;5066904;28;20044;-60
2023/01/23 03:03:41;;;;;;;63.05;31.00;;;;;;;;;;5054675;28;20029;-60
2023/01/23 03:06:07;;;;;;;66.47;31.52;;;;;;;;;;5099497;28;20082;-60
2023/01/23 03:08:35;;;;;;;80.15;36.00;;;;;;;;;;5061426;28;20035;-60
2023/01/23 03:11:02;;;;;;;68.45;31.70;;;;;;;;;;5058897;28;20037;-60
2023/01/23 03:13:29;;;;;;;64.13;33.20;;;;;;;;;;5069168;28;20396;-60
2023/01/23 03:15:56;;;;;;;63.03;30.65;;;;;;;;;;5089503;28;20036;-60
2023/01/23 03:18:23;;;;;;;62.80;29.95;;;;;;;;;;5063419;28;20083;-60
2023/01/23 03:20:49;;;;;;;75.75;33.58;;;;;;;;;;5063154;28;20485;-60
2023/01/23 03:23:15;;;;;;;64.13;32.58;;;;;;;;;;5057406;28;20032;-60
2023/01/23 03:25:45;;;;;;;62.55;31.80;;;;;;;;;;5068471;28;20111;-60
2023/01/23 03:30:12;;;;;;;70.72;32.65;;;;;;;;;;5059123;28;20488;-61
2023/01/23 03:30:58;;;;;;;72.13;33.60;;;;;;;;;;5061873;28;20456;-60
2023/01/23 03:33:24;;;;;;;69.07;31.15;;;;;;;;;;5070674;28;20024;-60
2023/01/23 03:35:51;;;;;;;66.63;32.17;;;;;;;;;;5074850;28;20057;-60
2023/01/23 03:38:18;;;;;;;64.35;31.55;;;;;;;;;;5063012;28;20054;-60
2023/01/23 03:43:34;;;;;;;66.30;32.30;;;;;;;;;;5054818;28;20028;-60
2023/01/23 03:46:01;;;;;;;62.67;30.90;;;;;;;;;;5056037;28;20456;-60
2023/01/23 03:48:28;;;;;;;68.93;31.73;;;;;;;;;;5062327;28;20025;-60
2023/01/23 03:50:56;;;;;;;65.18;31.20;;;;;;;;;;5063157;28;20537;-60
2023/01/23 03:53:23;;;;;;;63.00;31.30;;;;;;;;;;5090384;28;20077;-60
2023/01/23 03:55:50;;;;;;;67.95;32.47;;;;;;;;;;5091229;28;20436;-60
2023/01/23 03:58:17;;;;;;;66.28;32.45;;;;;;;;;;5091489;28;20051;-60
2023/01/23 04:00:45;;;;;;;56.42;29.67;;;;;;;;;;5091152;28;20031;-60
2023/01/23 04:03:12;;;;;;;62.38;30.02;;;;;;;;;;5091452;28;20038;-60
2023/01/23 04:05:39;;;;;;;75.50;31.52;;;;;;;;;;5091027;28;20110;-60
2023/01/23 04:08:05;;;;;;;66.07;31.33;;;;;;;;;;5089495;28;20030;-60
2023/01/23 04:10:32;;;;;;;70.10;31.58;;;;;;;;;;5070986;28;20101;-60
2023/01/23 04:13:04;;;;;;;63.85;31.27;;;;;;;;;;5080364;28;20426;-60
2023/01/23 04:15:32;;;;;;;64.65;30.67;;;;;;;;;;5091045;28;20385;-60
2023/01/23 04:17:59;;;;;;;67.93;29.50;;;;;;;;;;5091091;28;20405;-60
2023/01/23 04:20:27;;;;;;;66.85;29.48;;;;;;;;;;5074758;28;20398;-60
2023/01/23 04:22:54;;;;;;;57.83;29.20;;;;;;;;;;5070412;28;20036;-60
2023/01/23 04:25:21;;;;;;;57.33;28.77;;;;;;;;;;5070815;28;20060;-60
2023/01/23 04:27:47;;;;;;;63.65;28.55;;;;;;;;;;5070493;28;20051;-60
2023/01/23 04:30:13;;;;;;;55.42;26.98;;;;;;;;;;5070686;28;20021;-60
2023/01/23 04:32:40;;;;;;;60.05;28.42;;;;;;;;;;5070165;28;20501;-60
2023/01/23 04:35:07;;;;;;;58.85;27.45;;;;;;;;;;5070807;28;20031;-60
2023/01/23 04:37:36;;;;;;;62.70;28.33;;;;;;;;;;5070175;28;20040;-60
2023/01/23 04:40:02;;;;;;;58.53;28.25;;;;;;;;;;5070702;28;20513;-60
2023/01/23 04:42:37;;;;;;;57.75;28.20;;;;;;;;;;5070520;28;20115;-60
2023/01/23 04:45:07;;;;;;;57.33;28.55;;;;;;;;;;5070527;28;20032;-60
2023/01/23 04:47:52;;;;;;;62.92;28.10;;;;;;;;;;5051899;28;20081;-60
2023/01/23 04:50:19;;;;;;;55.22;26.92;;;;;;;;;;5053802;28;20501;-60
2023/01/23 04:52:46;;;;;;;56.03;27.60;;;;;;;;;;5069759;28;20025;-60
2023/01/23 04:55:13;;;;;;;55.10;25.98;;;;;;;;;;5076987;28;20032;-60
2023/01/23 04:57:41;;;;;;;48.08;26.25;;;;;;;;;;5094720;28;20024;-60
2023/01/23 05:00:23;;;;;;;56.05;26.27;;;;;;;;;;5094998;28;20024;-60
2023/01/23 05:02:50;;;;;;;57.03;26.65;;;;;;;;;;5078754;28;20025;-60
2023/01/23 05:05:19;;;;;;;56.00;25.35;;;;;;;;;;5074081;28;20013;-60
2023/01/23 05:07:48;;;;;;;57.05;28.00;;;;;;;;;;5107976;28;20048;-60
2023/01/23 05:10:16;;;;;;;55.38;26.42;;;;;;;;;;5074259;28;20024;-60
2023/01/23 05:12:43;;;;;;;54.33;26.65;;;;;;;;;;5093036;28;20077;-60
2023/01/23 05:15:09;;;;;;;52.90;26.23;;;;;;;;;;5094566;28;20032;-60
2023/01/23 05:17:38;;;;;;;53.65;25.30;;;;;;;;;;5068307;28;20031;-60
2023/01/23 05:20:05;;;;;;;53.53;25.33;;;;;;;;;;5053612;28;20108;-60
2023/01/23 05:22:32;;;;;;;61.85;25.77;;;;;;;;;;5055591;28;20543;-60
2023/01/23 05:24:59;;;;;;;59.58;27.23;;;;;;;;;;5053833;28;20098;-60
2023/01/23 05:27:28;;;;;;;52.22;24.60;;;;;;;;;;5053812;28;20453;-60
2023/01/23 05:29:54;;;;;;;50.78;24.13;;;;;;;;;;5054019;28;20025;-60
2023/01/23 05:32:23;;;;;;;45.63;23.35;;;;;;;;;;5069188;28;20089;-60
2023/01/23 05:34:56;;;;;;;48.20;23.42;;;;;;;;;;5073276;28;20029;-60
2023/01/23 05:37:26;;;;;;;49.20;25.83;;;;;;;;;;5073613;28;20048;-60
2023/01/23 05:39:57;;;;;;;50.35;23.15;;;;;;;;;;5073492;28;20073;-60
2023/01/23 05:42:26;;;;;;;51.05;24.50;;;;;;;;;;5073770;28;20110;-60
2023/01/23 05:45:20;;;;;;;51.45;24.98;;;;;;;;;;5073471;28;20063;-60
2023/01/23 05:47:46;;;;;;;61.60;26.33;;;;;;;;;;5073567;28;20043;-60
2023/01/23 05:50:17;;;;;;;57.25;26.20;;;;;;;;;;5074500;28;20016;-60
2023/01/23 05:52:44;;;;;;;51.33;25.63;;;;;;;;;;5093272;28;20043;-60
2023/01/23 05:55:10;;;;;;;57.70;27.30;;;;;;;;;;5085769;28;20107;-60
2023/01/23 05:57:38;;;;;;;55.88;25.88;;;;;;;;;;5073393;28;20047;-60
2023/01/23 06:00:12;;;;;;;58.22;27.20;;;;;;;;;;5074176;28;20031;-60
2023/01/23 06:02:41;;;;;;;54.97;25.05;;;;;;;;;;5074366;28;20024;-60
2023/01/23 06:05:28;;;;;;;63.90;27.38;;;;;;;;;;5080853;28;20028;-60
2023/01/23 06:08:05;;;;;;;54.80;25.52;;;;;;;;;;5078339;28;20513;-60
2023/01/23 06:10:32;;;;;;;56.10;25.90;;;;;;;;;;5079932;28;20024;-60
2023/01/23 06:12:58;;;;;;;50.28;26.38;;;;;;;;;;5081902;28;20021;-60
2023/01/23 06:15:24;;;;;;;54.38;25.67;;;;;;;;;;5082603;28;20052;-60
2023/01/23 06:17:53;;;;;;;45.85;23.15;;;;;;;;;;5079156;28;20020;-60
2023/01/23 06:20:19;;;;;;;55.30;25.38;;;;;;;;;;5082528;28;20020;-60
2023/01/23 06:22:46;;;;;;;48.53;23.30;;;;;;;;;;5082806;28;20486;-60
2023/01/23 06:25:13;;;;;;;49.55;23.98;;;;;;;;;;5083719;28;20111;-60
2023/01/23 06:27:40;;;;;;;47.22;24.83;;;;;;;;;;5083350;28;20065;-60
2023/01/23 06:30:08;;;;;;;51.78;24.98;;;;;;;;;;5081201;28;20031;-60
2023/01/23 06:32:39;;;;;;;50.97;25.75;;;;;;;;;;5074883;28;20028;-60
2023/01/23 06:35:07;;;;;;;53.92;23.33;;;;;;;;;;5082486;28;20436;-60
2023/01/23 06:37:37;;;;;;;56.05;25.40;;;;;;;;;;5080404;28;20044;-60
2023/01/23 06:40:04;;;;;;;48.47;23.27;;;;;;;;;;5082464;28;20359;-60
2023/01/23 06:42:31;;;;;;;59.45;24.05;;;;;;;;;;5082026;28;20020;-60
2023/01/23 06:44:57;;;;;;;51.15;23.77;;;;;;;;;;5082891;28;20028;-60
2023/01/23 06:47:25;;;;;;;53.75;23.75;;;;;;;;;;5081212;28;20077;-60
2023/01/23 06:50:00;;;;;;;44.42;23.13;;;;;;;;;;5077734;28;20036;-60
2023/01/23 06:52:28;;;;;;;48.50;24.75;;;;;;;;;;5108365;28;20393;-60
2023/01/23 06:54:54;;;;;;;54.03;26.05;;;;;;;;;;5077558;28;20032;-60
2023/01/23 06:57:21;;;;;;;49.78;25.33;;;;;;;;;;5071453;28;20021;-60
2023/01/23 06:59:48;;;;;;;58.28;25.90;;;;;;;;;;5081360;28;20069;-60
2023/01/23 07:02:17;;;;;;;51.22;24.23;;;;;;;;;;5073601;28;20028;-60
2023/01/23 07:04:45;;;;;;;54.70;26.35;;;;;;;;;;5077890;28;20414;-60
2023/01/23 07:07:12;;;;;;;61.13;25.45;;;;;;;;;;5077727;28;20020;-60
2023/01/23 07:09:39;;;;;;;65.28;31.13;;;;;;;;;;5080466;28;20016;-60
2023/01/23 07:12:18;;;;;;;65.07;30.67;;;;;;;;;;5073039;28;20389;-60
2023/01/23 07:14:45;;;;;;;63.80;30.23;;;;;;;;;;5075330;28;20032;-60
2023/01/23 07:17:15;;;;;;;55.60;27.67;;;;;;;;;;5078228;28;20024;-60
2023/01/23 07:19:42;;;;;;;53.38;25.10;;;;;;;;;;5073954;28;20568;-60
2023/01/23 07:22:11;;;;;;;55.45;25.20;;;;;;;;;;5080631;28;20032;-60
2023/01/23 07:24:37;;;;;;;54.95;26.67;;;;;;;;;;5065398;28;20067;-60
2023/01/23 07:27:03;;;;;;;52.85;25.75;;;;;;;;;;5061543;28;20032;-60
2023/01/23 07:29:29;;;;;;;53.78;27.88;;;;;;;;;;5058066;28;20071;-60
2023/01/23 07:31:59;;;;;;;52.58;26.05;;;;;;;;;;5062719;28;20495;-60
2023/01/23 07:34:25;;;;;;;57.20;25.83;;;;;;;;;;5058655;28;20029;-59
2023/01/23 07:36:51;;;;;;;53.10;26.13;;;;;;;;;;5059238;28;20131;-62
2023/01/23 07:39:18;;;;;;;48.83;24.23;;;;;;;;;;5070423;28;20029;-59
2023/01/23 07:41:44;;;;;;;51.45;24.90;;;;;;;;;;5070151;28;20020;-59
2023/01/23 07:44:17;;;;;;;56.22;25.25;;;;;;;;;;5063978;28;20272;-60
2023/01/23 07:46:43;;;;;;;52.95;26.52;;;;;;;;;;5069703;28;20505;-60
2023/01/23 07:49:09;;;;;;;53.90;26.45;;;;;;;;;;5070781;28;20055;-60
2023/01/23 07:51:35;;;;;;;50.75;26.23;;;;;;;;;;5070586;28;20151;-60
2023/01/23 07:54:02;;;;;;;56.17;24.88;;;;;;;;;;5071440;28;20028;-60
2023/01/23 07:56:28;;;;;;;48.83;24.98;;;;;;;;;;5071662;28;20032;-60
2023/01/23 07:58:54;;;;;;;50.80;24.35;;;;;;;;;;5071406;28;20048;-60
2023/01/23 08:01:20;;;;;;;64.35;25.55;;;;;;;;;;5071646;28;20513;-60
2023/01/23 08:03:47;;;;;;;57.50;27.30;;;;;;;;;;5071087;28;20028;-60
2023/01/23 08:06:13;;;;;;;60.50;26.05;;;;;;;;;;5064022;28;20489;-60
2023/01/23 08:08:39;;;;;;;64.57;27.48;;;;;;;;;;5071598;28;20410;-60
2023/01/23 08:11:06;;;;;;;67.03;27.30;;;;;;;;;;5070293;28;20039;-60
2023/01/23 08:13:33;;;;;;;52.92;25.77;;;;;;;;;;5070013;28;20081;-60
2023/01/23 08:15:59;;;;;;;55.22;25.42;;;;;;;;;;5084308;28;20024;-60
2023/01/23 08:18:25;;;;;;;51.22;25.80;;;;;;;;;;5072404;28;20040;-60
2023/01/23 08:20:53;;;;;;;52.47;23.98;;;;;;;;;;5077434;28;20029;-60
2023/01/23 08:23:19;;;;;;;50.83;24.45;;;;;;;;;;5071616;28;20048;-60
2023/01/23 08:25:45;;;;;;;53.30;26.20;;;;;;;;;;5071323;28;20078;-60
2023/01/23 08:28:11;;;;;;;52.42;25.58;;;;;;;;;;5058599;28;20486;-60
2023/01/23 08:30:37;;;;;;;47.70;24.63;;;;;;;;;;5070102;28;20097;-60
2023/01/23 08:33:03;;;;;;;48.88;25.38;;;;;;;;;;5071334;28;20472;-61
2023/01/23 08:35:29;;;;;;;56.28;25.33;;;;;;;;;;5071862;28;20040;-60
2023/01/23 08:37:56;;;;;;;60.53;27.75;;;;;;;;;;5070365;28;20116;-60
2023/01/23 08:40:22;;;;;;;57.33;28.15;;;;;;;;;;5060719;28;20065;-60
2023/01/23 08:42:48;;;;;;;63.67;28.92;;;;;;;;;;5061709;28;20542;-60
2023/01/23 08:45:14;;;;;;;64.20;28.73;;;;;;;;;;5069878;28;20025;-60
2023/01/23 08:47:40;;;;;;;66.65;29.35;;;;;;;;;;5065923;28;20036;-60
2023/01/23 08:50:06;;;;;;;59.72;28.40;;;;;;;;;;5055914;28;20021;-60
2023/01/23 08:52:34;;;;;;;63.80;27.98;;;;;;;;;;5065350;28;20028;-60
2023/01/23 08:55:00;;;;;;;54.88;26.85;;;;;;;;;;5069259;28;20025;-60
2023/01/23 08:57:26;;;;;;;58.92;26.58;;;;;;;;;;5055435;28;20511;-60
2023/01/23 08:59:52;;;;;;;52.17;26.05;;;;;;;;;;5058737;28;20029;-60
2023/01/23 09:02:18;;;;;;;53.53;26.60;;;;;;;;;;5068569;28;20473;-60
2023/01/23 09:04:45;;;;;;;52.75;28.02;;;;;;;;;;5071605;28;20025;-60
2023/01/23 09:07:11;;;;;;;61.22;27.80;;;;;;;;;;5058441;28;20044;-60
2023/01/23 09:09:37;;;;;;;52.60;27.30;;;;;;;;;;5072376;28;20410;-60
2023/01/23 09:12:03;;;;;;;70.75;29.85;;;;;;;;;;5069684;28;20024;-60
2023/01/23 09:14:30;;;;;;;105.60;42.80;;;;;;;;;;5060502;28;20029;-60
2023/01/23 09:16:56;;;;;;;98.88;41.20;;;;;;;;;;5070615;28;20040;-60
2023/01/23 09:19:22;;;;;;;96.30;40.58;;;;;;;;;;5071167;28;20104;-60
2023/01/23 09:21:48;;;;;;;86.97;38.60;;;;;;;;;;5070765;28;20385;-60
2023/01/23 09:24:14;;;;;;;78.35;34.38;;;;;;;;;;5071132;28;20028;-60
2023/01/23 09:26:42;;;;;;;80.22;35.17;;;;;;;;;;5071475;28;20025;-60
2023/01/23 09:29:08;;;;;;;76.82;34.40;;;;;;;;;;5071478;28;20032;-62
2023/01/23 09:31:35;;;;;;;70.65;32.90;;;;;;;;;;5071127;28;20397;-60
2023/01/23 09:34:02;;;;;;;65.00;31.92;;;;;;;;;;5071730;28;20348;-60
2023/01/23 09:36:28;;;;;;;68.30;32.40;;;;;;;;;;5060467;28;20517;-60
2023/01/23 09:38:54;;;;;;;66.18;32.30;;;;;;;;;;5074985;28;20032;-60
2023/01/23 09:41:26;;;;;;;68.82;31.10;;;;;;;;;;5074798;28;20094;-60
2023/01/23 09:43:55;;;;;;;61.67;31.55;;;;;;;;;;5073999;28;20051;-60
2023/01/23 09:46:38;;;;;;;76.63;32.22;;;;;;;;;;5074090;28;20028;-60
2023/01/23 09:49:11;;;;;;;67.82;28.92;;;;;;;;;;5075014;28;20031;-60
2023/01/23 09:51:37;;;;;;;61.67;30.08;;;;;;;;;;5074050;28;20431;-60
2023/01/23 09:54:29;;;;;;;62.65;30.20;;;;;;;;;;5074734;28;20032;-60
2023/01/23 09:56:57;;;;;;;67.47;32.75;;;;;;;;;;5072328;28;20502;-60
2023/01/23 09:59:35;;;;;;;65.72;32.60;;;;;;;;;;5074200;28;20063;-61
2023/01/23 10:02:02;;;;;;;71.47;33.20;;;;;;;;;;5074062;28;20025;-60
2023/01/23 10:04:28;;;;;;;65.63;33.90;;;;;;;;;;5074566;28;20027;-60
2023/01/23 10:07:04;;;;;;;66.25;35.60;;;;;;;;;;5073848;28;20692;-60
2023/01/23 10:09:30;;;;;;;80.00;35.75;;;;;;;;;;5073410;28;20029;-61
2023/01/23 10:11:59;;;;;;;74.28;36.45;;;;;;;;;;5073737;28;20017;-60
2023/01/23 10:14:43;;;;;;;65.13;32.63;;;;;;;;;;5073935;28;20032;-60
2023/01/23 10:17:28;;;;;;;65.70;32.53;;;;;;;;;;5063533;28;20024;-60
2023/01/23 10:20:06;;;;;;;85.55;40.67;;;;;;;;;;5073542;28;20120;-61
2023/01/23 10:22:41;;;;;;;71.88;33.63;;;;;;;;;;5072989;28;20033;-61
2023/01/23 10:25:11;;;;;;;70.18;34.58;;;;;;;;;;5064866;28;20478;-60
2023/01/23 10:27:41;;;;;;;66.20;35.75;;;;;;;;;;5073112;28;20033;-60
2023/01/23 10:30:42;;;;;;;76.55;36.15;;;;;;;;;;5073827;28;20028;-61
2023/01/23 10:33:16;;;;;;;66.00;35.08;;;;;;;;;;5033291;28;20037;-61
2023/01/23 10:35:52;;;;;;;67.75;32.80;;;;;;;;;;5027921;28;20061;-61
2023/01/23 10:38:33;;;;;;;60.65;31.65;;;;;;;;;;5040393;28;20164;-61
2023/01/23 10:41:18;;;;;;;70.43;33.47;;;;;;;;;;5033953;28;20121;-61
2023/01/23 10:43:46;;;;;;;68.75;32.55;;;;;;;;;;5021473;28;20026;-61
2023/01/23 10:46:15;;;;;;;66.65;33.00;;;;;;;;;;5030991;28;20414;-60
2023/01/23 10:48:42;;;;;;;69.82;34.83;;;;;;;;;;5020341;28;20096;-60
2023/01/23 10:51:25;;;;;;;79.32;35.05;;;;;;;;;;5024124;28;20546;-60
2023/01/23 10:54:13;;;;;;;65.15;35.33;;;;;;;;;;5027412;28;20038;-61
2023/01/23 10:56:46;;;;;;;82.15;38.50;;;;;;;;;;5020023;28;20033;-60
2023/01/23 10:59:19;;;;;;;72.65;34.22;;;;;;;;;;5023370;28;20037;-61
2023/01/23 11:01:54;;;;;;;67.25;34.58;;;;;;;;;;5021496;28;20136;-60
2023/01/23 11:04:21;;;;;;;67.80;33.20;;;;;;;;;;5024739;28;20045;-61
2023/01/23 11:07:08;;;;;;;65.55;32.45;;;;;;;;;;5045654;28;20075;-60
2023/01/23 11:09:44;;;;;;;62.00;31.55;;;;;;;;;;5060981;28;20096;-61
2023/01/23 11:12:14;;;;;;;70.43;34.35;;;;;;;;;;5072479;28;20116;-60
2023/01/23 11:14:40;;;;;;;66.15;34.85;;;;;;;;;;5070256;28;20402;-61
2023/01/23 11:17:20;;;;;;;60.58;32.38;;;;;;;;;;5072922;28;20078;-60
2023/01/23 11:19:48;;;;;;;70.25;33.17;;;;;;;;;;5070027;28;20048;-60
2023/01/23 11:22:24;;;;;;;63.92;30.23;;;;;;;;;;5071116;28;20046;-60
2023/01/23 11:24:50;;;;;;;57.20;30.33;;;;;;;;;;5071730;28;20051;-60
2023/01/23 11:27:19;;;;;;;62.72;32.40;;;;;;;;;;5071031;28;20025;-60
2023/01/23 11:29:48;;;;;;;65.63;31.17;;;;;;;;;;5073004;28;20032;-60
2023/01/23 11:32:15;;;;;;;62.13;33.17;;;;;;;;;;5070601;28;20034;-60
2023/01/23 11:34:47;;;;;;;72.78;35.72;;;;;;;;;;5070998;28;20116;-66
2023/01/23 11:37:32;;;;;;;75.32;35.53;;;;;;;;;;5070268;28;20051;-60
2023/01/23 11:40:28;;;;;;;71.70;36.00;;;;;;;;;;5068196;28;20364;-60
2023/01/23 11:42:54;;;;;;;75.57;39.95;;;;;;;;;;5059342;28;20040;-60
2023/01/23 11:45:53;;;;;;;75.68;41.47;;;;;;;;;;5071276;28;20078;-60
2023/01/23 11:48:41;;;;;;;79.32;40.70;;;;;;;;;;5012972;28;20590;-60
2023/01/23 11:51:14;;;;;;;82.15;41.78;;;;;;;;;;5008149;28;20044;-60
2023/01/23 11:53:44;;;;;;;75.80;38.13;;;;;;;;;;5013155;28;20030;-60
2023/01/23 11:56:31;;;;;;;82.90;40.35;;;;;;;;;;5010744;28;20113;-60
2023/01/23 11:59:08;;;;;;;73.43;37.35;;;;;;;;;;5011933;28;20472;-60
2023/01/23 12:01:38;;;;;;;74.10;37.67;;;;;;;;;;5011157;28;20048;-60
2023/01/23 12:04:04;;;;;;;74.72;37.80;;;;;;;;;;5014919;28;20129;-60
2023/01/23 12:06:31;;;;;;;70.07;36.00;;;;;;;;;;5010145;28;20038;-60
2023/01/23 12:08:59;;;;;;;67.78;35.53;;;;;;;;;;5014577;28;20061;-60
2023/01/23 12:11:28;;;;;;;60.75;32.70;;;;;;;;;;5009225;28;20042;-60
2023/01/23 12:14:07;;;;;;;68.82;35.22;;;;;;;;;;5009406;28;20022;-60
2023/01/23 12:16:38;;;;;;;61.70;31.58;;;;;;;;;;5008281;28;20488;-60
2023/01/23 12:19:17;;;;;;;50.33;26.92;;;;;;;;;;5018745;28;20119;-60
2023/01/23 12:22:12;;;;;;;33.47;17.88;;;;;;;;;;5019200;28;20041;-60
2023/01/23 12:24:47;;;;;;;32.38;17.80;;;;;;;;;;5034180;28;20029;-60
2023/01/23 12:27:13;;;;;;;37.78;18.13;;;;;;;;;;5065689;28;20048;-60
2023/01/23 12:29:42;;;;;;;36.80;19.83;;;;;;;;;;5071173;28;20031;-60
2023/01/23 12:32:31;;;;;;;37.78;20.85;;;;;;;;;;5064581;28;20032;-60
2023/01/23 12:35:16;;;;;;;32.63;14.95;;;;;;;;;;5066117;28;20045;-60
2023/01/23 12:37:48;;;;;;;14.85;7.28;;;;;;;;;;5070796;28;20035;-61
2023/01/23 12:40:22;;;;;;;13.40;5.85;;;;;;;;;;5061389;28;20033;-60
2023/01/23 12:43:07;;;;;;;12.93;4.78;;;;;;;;;;5061223;28;20031;-61
2023/01/23 12:45:33;;;;;;;13.52;4.65;;;;;;;;;;5071625;28;20025;-60
2023/01/23 12:47:59;;;;;;;7.72;4.40;;;;;;;;;;5066420;28;20103;-61
2023/01/23 12:50:38;;;;;;;12.05;4.32;;;;;;;;;;5070680;28;20104;-61
2023/01/23 12:53:06;;;;;;;10.52;4.35;;;;;;;;;;5069786;28;20123;-61
2023/01/23 12:55:37;;;;;;;4.38;3.75;;;;;;;;;;5069332;28;20025;-60
2023/01/23 12:58:04;;;;;;;6.05;3.53;;;;;;;;;;5065969;28;20032;-61
2023/01/23 13:00:52;;;;;;;7.90;3.40;;;;;;;;;;5063167;28;20482;-61
2023/01/23 13:03:57;;;;;;;16.25;3.65;;;;;;;;;;5058206;28;20025;-61
2023/01/23 13:06:48;;;;;;;7.05;3.78;;;;;;;;;;5027522;28;20029;-60
2023/01/23 13:09:21;;;;;;;5.10;3.20;;;;;;;;;;5026086;28;20025;-60
2023/01/23 13:11:53;;;;;;;11.85;4.03;;;;;;;;;;5025150;28;20049;-61
2023/01/23 13:14:24;;;;;;;6.63;3.72;;;;;;;;;;5030884;28;20033;-60
2023/01/23 13:16:51;;;;;;;7.93;4.03;;;;;;;;;;5029216;28;20030;-60
2023/01/23 13:22:15;;;;;;;7.65;3.47;;;;;;;;;;5027383;28;20070;-60
2023/01/23 13:27:31;;;;;;;8.93;4.10;;;;;;;;;;5031788;28;20033;-60
2023/01/23 13:29:57;;;;;;;6.65;4.10;;;;;;;;;;5031616;28;20589;-60
2023/01/23 13:32:27;;;;;;;10.30;5.00;;;;;;;;;;5033124;28;20554;-60
2023/01/23 13:34:53;;;;;;;13.70;5.00;;;;;;;;;;5032813;28;20029;-60
2023/01/23 13:37:25;;;;;;;5.20;3.60;;;;;;;;;;5055648;28;20091;-60
2023/01/23 13:40:02;;;;;;;5.47;3.55;;;;;;;;;;5074204;28;20020;-62
2023/01/23 13:42:28;;;;;;;12.95;4.25;;;;;;;;;;5073875;28;21102;-60
2023/01/23 13:45:13;;;;;;;10.07;5.40;;;;;;;;;;5073916;28;20063;-60
2023/01/23 13:50:31;;;;;;;7.95;3.80;;;;;;;;;;5071503;28;20029;-60
2023/01/23 13:58:33;;;;;;;7.53;4.22;;;;;;;;;;5071582;28;20024;-60
2023/01/23 14:06:40;;;;;;;7.93;3.70;;;;;;;;;;5060803;28;20029;-60
2023/01/23 14:09:23;;;;;;;10.13;4.20;;;;;;;;;;5065796;28;20024;-60
2023/01/23 14:11:49;;;;;;;;;;;;;;;;;;5069305;28;20434;-60
2023/01/23 14:17:00;;;;;;;17.77;6.20;;;;;;;;;;5065379;28;20454;-61
2023/01/23 14:19:28;;;;;;;11.43;5.47;;;;;;;;;;5076034;28;20398;-61
2023/01/23 14:21:56;;;;;;;8.27;4.07;;;;;;;;;;5071813;28;20029;-61
2023/01/23 14:24:42;;;;;;;13.05;5.43;;;;;;;;;;5063686;28;20064;-60
2023/01/23 14:27:09;;;;;;;8.75;5.03;;;;;;;;;;5068930;28;20028;-60
2023/01/23 14:29:35;;;;;;;15.60;5.18;;;;;;;;;;5069681;28;20036;-61
2023/01/23 14:32:01;;;;;;;10.38;4.85;;;;;;;;;;5059752;28;20041;-61
2023/01/23 14:34:27;;;;;;;8.82;4.97;;;;;;;;;;5061616;28;20017;-61
2023/01/23 14:36:59;;;;;;;20.23;6.43;;;;;;;;;;5064429;28;20041;-61
2023/01/23 14:39:27;;;;;;;15.13;6.88;;;;;;;;;;5059792;28;20072;-61
2023/01/23 14:41:54;;;;;;;9.43;5.82;;;;;;;;;;5070203;28;20055;-61
2023/01/23 14:44:24;;;;;;;11.57;5.35;;;;;;;;;;5063672;28;20025;-61
2023/01/23 14:46:52;;;;;;;7.72;4.97;;;;;;;;;;5067589;28;20028;-61
2023/01/23 14:49:23;;;;;;;13.73;4.75;;;;;;;;;;5066589;28;20035;-61
2023/01/23 14:52:00;;;;;;;10.60;4.30;;;;;;;;;;5066833;28;20394;-61
2023/01/23 14:54:27;;;;;;;9.73;4.63;;;;;;;;;;5060741;28;20024;-61
2023/01/23 14:56:55;;;;;;;10.20;5.22;;;;;;;;;;5063107;28;20048;-61
2023/01/23 14:59:35;;;;;;;14.20;5.97;;;;;;;;;;5065841;28;20032;-61
2023/01/23 15:02:03;;;;;;;12.93;5.88;;;;;;;;;;5068031;28;20025;-61
2023/01/23 15:04:30;;;;;;;13.77;5.90;;;;;;;;;;5066989;28;20048;-60